sensor_id;sensor_type;location;lat;lon;timestamp;pressure;altitude;pressure_sealevel;temperature;humidity
79131;BME280;70394;45.194;9.142;2023-06-10T00:00:52;100337.50;;;22.99;62.40
79131;BME280;70394;45.194;9.142;2023-06-10T00:03:18;100330.00;;;23.03;62.28
79131;BME280;70394;45.194;9.142;2023-06-10T00:05:43;100345.25;;;23.02;61.98
79131;BME280;70394;45.194;9.142;2023-06-10T00:08:09;100332.69;;;23.03;61.80
79131;BME280;70394;45.194;9.142;2023-06-10T00:10:36;100346.84;;;23.05;61.35
79131;BME280;70394;45.194;9.142;2023-06-10T00:13:04;100344.28;;;23.03;61.88
79131;BME280;70394;45.194;9.142;2023-06-10T00:15:30;100330.69;;;23.05;61.50
79131;BME280;70394;45.194;9.142;2023-06-10T00:17:55;100336.50;;;23.00;61.49
79131;BME280;70394;45.194;9.142;2023-06-10T00:20:21;100330.69;;;22.95;62.04
79131;BME280;70394;45.194;9.142;2023-06-10T00:22:51;100345.13;;;22.94;62.10
79131;BME280;70394;45.194;9.142;2023-06-10T00:25:17;100334.22;;;22.95;62.14
79131;BME280;70394;45.194;9.142;2023-06-10T00:27:42;100340.59;;;22.94;62.24
79131;BME280;70394;45.194;9.142;2023-06-10T00:30:08;100333.53;;;22.93;62.48
79131;BME280;70394;45.194;9.142;2023-06-10T00:32:34;100336.91;;;22.95;62.56
79131;BME280;70394;45.194;9.142;2023-06-10T00:35:00;100333.38;;;22.95;62.32
79131;BME280;70394;45.194;9.142;2023-06-10T00:37:26;100331.00;;;22.92;62.03
79131;BME280;70394;45.194;9.142;2023-06-10T00:39:52;100329.84;;;22.84;62.32
79131;BME280;70394;45.194;9.142;2023-06-10T00:42:17;100332.13;;;22.89;62.39
79131;BME280;70394;45.194;9.142;2023-06-10T00:44:43;100322.63;;;22.85;62.65
79131;BME280;70394;45.194;9.142;2023-06-10T00:47:08;100333.97;;;22.89;62.80
79131;BME280;70394;45.194;9.142;2023-06-10T00:49:34;100328.72;;;22.87;62.68
79131;BME280;70394;45.194;9.142;2023-06-10T00:52:00;100328.03;;;22.85;62.50
79131;BME280;70394;45.194;9.142;2023-06-10T00:54:26;100332.53;;;22.84;62.63
79131;BME280;70394;45.194;9.142;2023-06-10T00:56:53;100322.94;;;22.82;62.84
79131;BME280;70394;45.194;9.142;2023-06-10T00:59:18;100334.09;;;22.87;63.09
79131;BME280;70394;45.194;9.142;2023-06-10T01:01:45;100329.00;;;22.84;62.53
79131;BME280;70394;45.194;9.142;2023-06-10T01:04:12;100323.19;;;22.79;62.93
79131;BME280;70394;45.194;9.142;2023-06-10T01:09:24;100321.94;;;22.83;63.09
79131;BME280;70394;45.194;9.142;2023-06-10T01:12:04;100320.78;;;22.76;63.26
79131;BME280;70394;45.194;9.142;2023-06-10T01:14:34;100319.09;;;22.75;63.65
79131;BME280;70394;45.194;9.142;2023-06-10T01:17:00;100325.63;;;22.72;63.75
79131;BME280;70394;45.194;9.142;2023-06-10T01:19:26;100310.59;;;22.69;63.33
79131;BME280;70394;45.194;9.142;2023-06-10T01:21:53;100321.66;;;22.76;63.55
79131;BME280;70394;45.194;9.142;2023-06-10T01:24:20;100317.97;;;22.77;62.48
79131;BME280;70394;45.194;9.142;2023-06-10T01:26:48;100302.25;;;22.82;62.46
79131;BME280;70394;45.194;9.142;2023-06-10T01:29:21;100311.31;;;22.81;62.46
79131;BME280;70394;45.194;9.142;2023-06-10T01:32:01;100309.31;;;22.74;62.47
79131;BME280;70394;45.194;9.142;2023-06-10T01:34:31;100295.75;;;22.65;62.26
79131;BME280;70394;45.194;9.142;2023-06-10T01:36:58;100313.72;;;22.75;62.33
79131;BME280;70394;45.194;9.142;2023-06-10T01:39:24;100307.63;;;22.73;62.76
79131;BME280;70394;45.194;9.142;2023-06-10T01:41:52;100306.63;;;22.74;62.37
79131;BME280;70394;45.194;9.142;2023-06-10T01:44:23;100311.72;;;22.77;62.61
79131;BME280;70394;45.194;9.142;2023-06-10T01:46:49;100299.56;;;22.73;62.41
79131;BME280;70394;45.194;9.142;2023-06-10T01:49:14;100300.69;;;22.70;62.73
79131;BME280;70394;45.194;9.142;2023-06-10T01:51:40;100297.28;;;22.68;62.92
79131;BME280;70394;45.194;9.142;2023-06-10T01:54:05;100294.06;;;22.64;63.17
79131;BME280;70394;45.194;9.142;2023-06-10T01:56:31;100293.91;;;22.66;63.01
79131;BME280;70394;45.194;9.142;2023-06-10T01:58:56;100299.28;;;22.66;63.10
79131;BME280;70394;45.194;9.142;2023-06-10T02:01:25;100299.97;;;22.58;63.51
79131;BME280;70394;45.194;9.142;2023-06-10T02:03:51;100303.25;;;22.62;63.38
79131;BME280;70394;45.194;9.142;2023-06-10T02:06:16;100294.31;;;22.61;63.82
79131;BME280;70394;45.194;9.142;2023-06-10T02:08:41;100293.91;;;22.56;63.85
79131;BME280;70394;45.194;9.142;2023-06-10T02:11:07;100283.09;;;22.46;63.97
79131;BME280;70394;45.194;9.142;2023-06-10T02:13:32;100296.47;;;22.58;63.84
79131;BME280;70394;45.194;9.142;2023-06-10T02:15:58;100303.53;;;22.59;63.74
79131;BME280;70394;45.194;9.142;2023-06-10T02:18:23;100288.81;;;22.53;64.06
79131;BME280;70394;45.194;9.142;2023-06-10T02:20:49;100282.03;;;22.49;64.11
79131;BME280;70394;45.194;9.142;2023-06-10T02:23:14;100291.16;;;22.46;64.36
79131;BME280;70394;45.194;9.142;2023-06-10T02:25:40;100289.09;;;22.50;64.06
79131;BME280;70394;45.194;9.142;2023-06-10T02:28:05;100285.69;;;22.48;64.01
79131;BME280;70394;45.194;9.142;2023-06-10T02:30:30;100289.09;;;22.50;64.18
79131;BME280;70394;45.194;9.142;2023-06-10T02:32:56;100295.59;;;22.57;63.92
79131;BME280;70394;45.194;9.142;2023-06-10T02:35:21;100297.84;;;22.52;64.21
79131;BME280;70394;45.194;9.142;2023-06-10T02:37:49;100287.41;;;22.49;64.20
79131;BME280;70394;45.194;9.142;2023-06-10T02:40:15;100294.47;;;22.50;64.16
79131;BME280;70394;45.194;9.142;2023-06-10T02:42:41;100289.47;;;22.45;64.38
79131;BME280;70394;45.194;9.142;2023-06-10T02:45:06;100290.75;;;22.41;64.84
79131;BME280;70394;45.194;9.142;2023-06-10T02:47:32;100286.91;;;22.43;64.99
79131;BME280;70394;45.194;9.142;2023-06-10T02:49:57;100283.81;;;22.38;65.14
79131;BME280;70394;45.194;9.142;2023-06-10T02:52:23;100292.78;;;22.49;64.82
79131;BME280;70394;45.194;9.142;2023-06-10T02:54:48;100287.91;;;22.42;64.89
79131;BME280;70394;45.194;9.142;2023-06-10T02:57:14;100295.25;;;22.40;65.28
79131;BME280;70394;45.194;9.142;2023-06-10T02:59:39;100287.19;;;22.40;65.18
79131;BME280;70394;45.194;9.142;2023-06-10T03:02:05;100281.81;;;22.40;64.87
79131;BME280;70394;45.194;9.142;2023-06-10T03:04:31;100281.41;;;22.35;65.16
79131;BME280;70394;45.194;9.142;2023-06-10T03:06:56;100285.50;;;22.39;64.95
79131;BME280;70394;45.194;9.142;2023-06-10T03:09:22;100277.84;;;22.35;65.16
79131;BME280;70394;45.194;9.142;2023-06-10T03:11:47;100285.34;;;22.31;65.63
79131;BME280;70394;45.194;9.142;2023-06-10T03:14:12;100288.19;;;22.39;65.27
79131;BME280;70394;45.194;9.142;2023-06-10T03:16:38;100277.16;;;22.33;65.80
79131;BME280;70394;45.194;9.142;2023-06-10T03:19:08;100279.69;;;22.34;65.49
79131;BME280;70394;45.194;9.142;2023-06-10T03:21:34;100291.28;;;22.35;65.20
79131;BME280;70394;45.194;9.142;2023-06-10T03:24:00;100270.19;;;22.30;65.33
79131;BME280;70394;45.194;9.142;2023-06-10T03:26:26;100284.22;;;22.34;65.12
79131;BME280;70394;45.194;9.142;2023-06-10T03:28:52;100276.56;;;22.29;65.48
79131;BME280;70394;45.194;9.142;2023-06-10T03:31:18;100274.31;;;22.24;65.55
79131;BME280;70394;45.194;9.142;2023-06-10T03:33:44;100274.75;;;22.29;65.46
79131;BME280;70394;45.194;9.142;2023-06-10T03:36:09;100279.69;;;22.24;65.48
79131;BME280;70394;45.194;9.142;2023-06-10T03:38:34;100272.47;;;22.25;65.89
79131;BME280;70394;45.194;9.142;2023-06-10T03:41:00;100272.63;;;22.23;65.82
79131;BME280;70394;45.194;9.142;2023-06-10T03:43:26;100284.19;;;22.24;65.81
79131;BME280;70394;45.194;9.142;2023-06-10T03:45:52;100285.06;;;22.24;65.96
79131;BME280;70394;45.194;9.142;2023-06-10T03:48:18;100285.91;;;22.25;66.02
79131;BME280;70394;45.194;9.142;2023-06-10T03:50:43;100294.22;;;22.22;66.34
79131;BME280;70394;45.194;9.142;2023-06-10T03:53:09;100292.66;;;22.19;66.39
79131;BME280;70394;45.194;9.142;2023-06-10T03:55:34;100288.16;;;22.20;66.55
79131;BME280;70394;45.194;9.142;2023-06-10T03:58:00;100294.78;;;22.16;67.00
79131;BME280;70394;45.194;9.142;2023-06-10T04:00:25;100287.84;;;22.13;66.88
79131;BME280;70394;45.194;9.142;2023-06-10T04:02:50;100293.22;;;22.13;67.14
79131;BME280;70394;45.194;9.142;2023-06-10T04:05:18;100273.41;;;22.04;66.93
79131;BME280;70394;45.194;9.142;2023-06-10T04:07:44;100285.28;;;22.11;66.59
79131;BME280;70394;45.194;9.142;2023-06-10T04:10:12;100290.63;;;22.02;66.42
79131;BME280;70394;45.194;9.142;2023-06-10T04:12:38;100286.97;;;22.03;66.33
79131;BME280;70394;45.194;9.142;2023-06-10T04:15:04;100284.72;;;22.08;66.43
79131;BME280;70394;45.194;9.142;2023-06-10T04:17:30;100284.16;;;22.04;66.87
79131;BME280;70394;45.194;9.142;2023-06-10T04:19:56;100286.25;;;22.00;66.68
79131;BME280;70394;45.194;9.142;2023-06-10T04:22:22;100284.81;;;21.96;66.34
79131;BME280;70394;45.194;9.142;2023-06-10T04:24:48;100294.31;;;22.00;66.23
79131;BME280;70394;45.194;9.142;2023-06-10T04:27:13;100287.50;;;21.96;65.42
79131;BME280;70394;45.194;9.142;2023-06-10T04:29:38;100291.19;;;21.95;65.68
79131;BME280;70394;45.194;9.142;2023-06-10T04:32:04;100299.09;;;21.97;65.34
79131;BME280;70394;45.194;9.142;2023-06-10T04:34:33;100283.22;;;21.84;65.08
79131;BME280;70394;45.194;9.142;2023-06-10T04:36:58;100294.97;;;21.93;65.00
79131;BME280;70394;45.194;9.142;2023-06-10T04:39:24;100301.91;;;21.95;65.08
79131;BME280;70394;45.194;9.142;2023-06-10T04:41:49;100312.78;;;21.94;65.40
79131;BME280;70394;45.194;9.142;2023-06-10T04:44:14;100295.94;;;21.82;64.74
79131;BME280;70394;45.194;9.142;2023-06-10T04:46:40;100301.63;;;21.89;65.19
79131;BME280;70394;45.194;9.142;2023-06-10T04:49:05;100301.63;;;21.89;65.12
79131;BME280;70394;45.194;9.142;2023-06-10T04:51:31;100301.34;;;21.92;64.62
79131;BME280;70394;45.194;9.142;2023-06-10T04:54:00;100299.63;;;21.91;64.26
79131;BME280;70394;45.194;9.142;2023-06-10T04:56:29;100295.13;;;21.91;64.50
79131;BME280;70394;45.194;9.142;2023-06-10T04:58:55;100295.13;;;21.91;64.68
79131;BME280;70394;45.194;9.142;2023-06-10T05:01:20;100301.66;;;21.98;64.48
79131;BME280;70394;45.194;9.142;2023-06-10T05:03:46;100294.69;;;21.96;65.10
79131;BME280;70394;45.194;9.142;2023-06-10T05:06:11;100288.31;;;21.87;64.93
79131;BME280;70394;45.194;9.142;2023-06-10T05:08:36;100290.75;;;21.90;65.08
79131;BME280;70394;45.194;9.142;2023-06-10T05:11:02;100291.16;;;21.85;65.10
79131;BME280;70394;45.194;9.142;2023-06-10T05:13:27;100292.44;;;21.91;64.65
79131;BME280;70394;45.194;9.142;2023-06-10T05:15:52;100295.69;;;21.95;65.04
79131;BME280;70394;45.194;9.142;2023-06-10T05:18:18;100291.19;;;21.95;65.39
79131;BME280;70394;45.194;9.142;2023-06-10T05:20:43;100293.00;;;21.95;65.29
79131;BME280;70394;45.194;9.142;2023-06-10T05:23:09;100293.19;;;22.03;64.89
79131;BME280;70394;45.194;9.142;2023-06-10T05:25:35;100295.31;;;22.09;64.78
79131;BME280;70394;45.194;9.142;2023-06-10T05:28:01;100299.69;;;22.10;64.81
79131;BME280;70394;45.194;9.142;2023-06-10T05:30:27;100294.34;;;22.10;64.75
79131;BME280;70394;45.194;9.142;2023-06-10T05:32:52;100302.84;;;22.16;64.97
79131;BME280;70394;45.194;9.142;2023-06-10T05:35:18;100298.72;;;22.11;64.55
79131;BME280;70394;45.194;9.142;2023-06-10T05:37:43;100301.28;;;22.13;64.81
79131;BME280;70394;45.194;9.142;2023-06-10T05:40:09;100301.97;;;22.15;64.61
79131;BME280;70394;45.194;9.142;2023-06-10T05:42:35;100296.72;;;22.13;64.74
79131;BME280;70394;45.194;9.142;2023-06-10T05:45:01;100294.59;;;22.07;64.82
79131;BME280;70394;45.194;9.142;2023-06-10T05:47:27;100302.38;;;22.10;64.68
79131;BME280;70394;45.194;9.142;2023-06-10T05:49:53;100298.00;;;22.09;64.79
79131;BME280;70394;45.194;9.142;2023-06-10T05:52:18;100291.66;;;22.10;64.93
79131;BME280;70394;45.194;9.142;2023-06-10T05:54:44;100292.66;;;22.19;64.61
79131;BME280;70394;45.194;9.142;2023-06-10T05:57:09;100304.38;;;22.18;64.56
79131;BME280;70394;45.194;9.142;2023-06-10T05:59:35;100302.56;;;22.19;64.57
79131;BME280;70394;45.194;9.142;2023-06-10T06:02:01;100299.56;;;22.12;64.94
79131;BME280;70394;45.194;9.142;2023-06-10T06:04:26;100304.38;;;22.18;64.95
79131;BME280;70394;45.194;9.142;2023-06-10T06:06:52;100301.56;;;22.20;65.05
79131;BME280;70394;45.194;9.142;2023-06-10T06:09:17;100303.41;;;22.19;64.72
79131;BME280;70394;45.194;9.142;2023-06-10T06:11:42;100311.47;;;22.19;64.67
79131;BME280;70394;45.194;9.142;2023-06-10T06:14:08;100312.75;;;22.25;64.63
79131;BME280;70394;45.194;9.142;2023-06-10T06:16:33;100314.28;;;22.18;64.92
79131;BME280;70394;45.194;9.142;2023-06-10T06:18:58;100315.72;;;22.22;65.15
79131;BME280;70394;45.194;9.142;2023-06-10T06:21:24;100320.09;;;22.23;65.32
79131;BME280;70394;45.194;9.142;2023-06-10T06:23:49;100305.94;;;22.11;64.71
79131;BME280;70394;45.194;9.142;2023-06-10T06:26:15;100318.69;;;22.19;65.08
79131;BME280;70394;45.194;9.142;2023-06-10T06:28:40;100320.75;;;22.05;65.06
79131;BME280;70394;45.194;9.142;2023-06-10T06:31:06;100324.31;;;22.16;64.95
79131;BME280;70394;45.194;9.142;2023-06-10T06:33:32;100323.03;;;22.10;65.23
79131;BME280;70394;45.194;9.142;2023-06-10T06:35:57;100322.63;;;22.14;65.15
79131;BME280;70394;45.194;9.142;2023-06-10T06:38:25;100327.00;;;22.16;65.10
79131;BME280;70394;45.194;9.142;2023-06-10T06:40:50;100331.25;;;22.18;65.32
79131;BME280;70394;45.194;9.142;2023-06-10T06:43:15;100324.56;;;22.12;65.63
79131;BME280;70394;45.194;9.142;2023-06-10T06:45:42;100327.44;;;22.21;64.85
79131;BME280;70394;45.194;9.142;2023-06-10T06:48:07;100327.16;;;22.24;64.68
79131;BME280;70394;45.194;9.142;2023-06-10T06:50:33;100330.97;;;22.21;64.57
79131;BME280;70394;45.194;9.142;2023-06-10T06:52:58;100326.56;;;22.20;65.01
79131;BME280;70394;45.194;9.142;2023-06-10T06:55:23;100324.19;;;22.27;64.77
79131;BME280;70394;45.194;9.142;2023-06-10T06:57:49;100318.97;;;22.25;64.68
79131;BME280;70394;45.194;9.142;2023-06-10T07:00:14;100320.69;;;22.26;64.23
79131;BME280;70394;45.194;9.142;2023-06-10T07:02:40;100325.19;;;22.26;64.28
79131;BME280;70394;45.194;9.142;2023-06-10T07:05:06;100309.63;;;22.20;64.39
79131;BME280;70394;45.194;9.142;2023-06-10T07:07:31;100333.72;;;22.31;64.40
79131;BME280;70394;45.194;9.142;2023-06-10T07:09:56;100334.66;;;22.30;64.86
79131;BME280;70394;45.194;9.142;2023-06-10T07:12:22;100334.25;;;22.35;65.64
79131;BME280;70394;45.194;9.142;2023-06-10T07:14:50;100332.16;;;22.38;65.27
79131;BME280;70394;45.194;9.142;2023-06-10T07:17:16;100336.25;;;22.42;65.90
79131;BME280;70394;45.194;9.142;2023-06-10T07:19:43;100331.59;;;22.45;65.75
79131;BME280;70394;45.194;9.142;2023-06-10T07:22:08;100324.25;;;22.47;65.99
79131;BME280;70394;45.194;9.142;2023-06-10T07:24:34;100330.94;;;22.52;65.81
79131;BME280;70394;45.194;9.142;2023-06-10T07:26:59;100335.47;;;22.52;65.52
79131;BME280;70394;45.194;9.142;2023-06-10T07:29:25;100337.47;;;22.50;64.58
79131;BME280;70394;45.194;9.142;2023-06-10T07:31:50;100333.19;;;22.47;64.61
79131;BME280;70394;45.194;9.142;2023-06-10T07:34:15;100336.13;;;22.44;63.72
79131;BME280;70394;45.194;9.142;2023-06-10T07:36:41;100327.22;;;22.43;62.71
79131;BME280;70394;45.194;9.142;2023-06-10T07:39:06;100326.06;;;22.36;62.75
79131;BME280;70394;45.194;9.142;2023-06-10T07:41:32;100322.41;;;22.37;62.26
79131;BME280;70394;45.194;9.142;2023-06-10T07:43:57;100314.16;;;22.29;61.42
79131;BME280;70394;45.194;9.142;2023-06-10T07:46:23;100306.97;;;22.29;62.01
79131;BME280;70394;45.194;9.142;2023-06-10T07:48:49;100329.59;;;22.37;61.27
79131;BME280;70394;45.194;9.142;2023-06-10T07:51:16;100332.03;;;22.40;61.17
79131;BME280;70394;45.194;9.142;2023-06-10T07:53:42;100324.19;;;22.27;59.71
79131;BME280;70394;45.194;9.142;2023-06-10T07:56:07;100322.66;;;22.24;60.48
79131;BME280;70394;45.194;9.142;2023-06-10T07:58:32;100325.47;;;22.23;60.43
79131;BME280;70394;45.194;9.142;2023-06-10T08:00:58;100319.38;;;22.21;59.91
79131;BME280;70394;45.194;9.142;2023-06-10T08:03:23;100329.75;;;22.35;60.90
79131;BME280;70394;45.194;9.142;2023-06-10T08:05:49;100327.78;;;22.37;60.57
79131;BME280;70394;45.194;9.142;2023-06-10T08:08:14;100310.94;;;22.35;60.84
79131;BME280;70394;45.194;9.142;2023-06-10T08:10:39;100321.00;;;22.43;60.61
79131;BME280;70394;45.194;9.142;2023-06-10T08:13:05;100324.09;;;22.38;60.89
79131;BME280;70394;45.194;9.142;2023-06-10T08:15:30;100321.41;;;22.38;61.65
79131;BME280;70394;45.194;9.142;2023-06-10T08:17:56;100325.84;;;22.49;61.24
79131;BME280;70394;45.194;9.142;2023-06-10T08:20:22;100326.44;;;22.53;60.76
79131;BME280;70394;45.194;9.142;2023-06-10T08:22:47;100328.25;;;22.62;60.84
79131;BME280;70394;45.194;9.142;2023-06-10T08:25:13;100326.16;;;22.76;61.10
79131;BME280;70394;45.194;9.142;2023-06-10T08:27:38;100328.31;;;22.82;61.13
79131;BME280;70394;45.194;9.142;2023-06-10T08:30:04;100326.03;;;22.87;61.80
79131;BME280;70394;45.194;9.142;2023-06-10T08:32:29;100324.34;;;22.76;60.64
79131;BME280;70394;45.194;9.142;2023-06-10T08:34:55;100324.59;;;22.63;59.28
79131;BME280;70394;45.194;9.142;2023-06-10T08:37:20;100333.50;;;22.64;59.70
79131;BME280;70394;45.194;9.142;2023-06-10T08:39:46;100330.94;;;22.62;59.60
79131;BME280;70394;45.194;9.142;2023-06-10T08:44:46;100334.97;;;22.97;59.79
79131;BME280;70394;45.194;9.142;2023-06-10T08:47:15;100327.03;;;23.06;60.26
79131;BME280;70394;45.194;9.142;2023-06-10T08:49:46;100317.13;;;23.16;59.70
79131;BME280;70394;45.194;9.142;2023-06-10T08:52:15;100332.38;;;23.25;59.95
79131;BME280;70394;45.194;9.142;2023-06-10T08:54:54;100326.44;;;23.22;59.98
79131;BME280;70394;45.194;9.142;2023-06-10T08:57:22;100318.50;;;23.20;60.00
79131;BME280;70394;45.194;9.142;2023-06-10T08:59:48;100322.78;;;23.33;59.74
79131;BME280;70394;45.194;9.142;2023-06-10T09:02:15;100323.03;;;23.30;59.53
79131;BME280;70394;45.194;9.142;2023-06-10T09:04:42;100325.31;;;23.34;59.59
79131;BME280;70394;45.194;9.142;2023-06-10T09:07:09;100322.59;;;23.44;59.41
79131;BME280;70394;45.194;9.142;2023-06-10T09:09:36;100319.88;;;23.54;59.42
79131;BME280;70394;45.194;9.142;2023-06-10T09:12:01;100312.38;;;23.58;59.60
79131;BME280;70394;45.194;9.142;2023-06-10T09:14:27;100314.78;;;23.61;59.28
79131;BME280;70394;45.194;9.142;2023-06-10T09:16:52;100324.28;;;23.65;59.49
79131;BME280;70394;45.194;9.142;2023-06-10T09:19:22;100316.91;;;23.67;59.40
79131;BME280;70394;45.194;9.142;2023-06-10T09:21:48;100315.72;;;23.69;59.13
79131;BME280;70394;45.194;9.142;2023-06-10T09:24:13;100316.03;;;23.66;58.40
79131;BME280;70394;45.194;9.142;2023-06-10T09:26:39;100297.84;;;23.40;56.10
79131;BME280;70394;45.194;9.142;2023-06-10T09:29:06;100321.78;;;23.44;55.26
79131;BME280;70394;45.194;9.142;2023-06-10T09:31:36;100321.63;;;23.55;56.52
79131;BME280;70394;45.194;9.142;2023-06-10T09:34:09;100326.09;;;23.64;57.09
79131;BME280;70394;45.194;9.142;2023-06-10T09:36:35;100320.69;;;23.74;56.97
79131;BME280;70394;45.194;9.142;2023-06-10T09:39:01;100320.13;;;23.80;56.56
79131;BME280;70394;45.194;9.142;2023-06-10T09:41:34;100309.03;;;23.83;54.63
79131;BME280;70394;45.194;9.142;2023-06-10T09:44:00;100302.75;;;23.65;54.75
79131;BME280;70394;45.194;9.142;2023-06-10T09:46:30;100313.00;;;23.79;54.31
79131;BME280;70394;45.194;9.142;2023-06-10T09:48:57;100313.31;;;23.76;54.77
79131;BME280;70394;45.194;9.142;2023-06-10T09:51:22;100307.84;;;23.96;54.58
79131;BME280;70394;45.194;9.142;2023-06-10T09:53:51;100299.63;;;23.97;54.01
79131;BME280;70394;45.194;9.142;2023-06-10T09:56:16;100301.47;;;24.07;54.26
79131;BME280;70394;45.194;9.142;2023-06-10T09:58:42;100296.41;;;24.22;55.14
79131;BME280;70394;45.194;9.142;2023-06-10T10:01:09;100298.22;;;24.31;54.69
79131;BME280;70394;45.194;9.142;2023-06-10T10:03:50;100293.97;;;24.29;53.24
79131;BME280;70394;45.194;9.142;2023-06-10T10:06:17;100301.44;;;24.35;52.70
79131;BME280;70394;45.194;9.142;2023-06-10T10:08:44;100293.03;;;24.20;53.62
79131;BME280;70394;45.194;9.142;2023-06-10T10:11:10;100300.91;;;24.31;53.63
79131;BME280;70394;45.194;9.142;2023-06-10T10:13:37;100297.13;;;24.42;54.03
79131;BME280;70394;45.194;9.142;2023-06-10T10:16:15;100295.69;;;24.48;53.17
79131;BME280;70394;45.194;9.142;2023-06-10T10:18:46;100299.44;;;24.55;52.52
79131;BME280;70394;45.194;9.142;2023-06-10T10:21:15;100293.38;;;24.53;52.27
79131;BME280;70394;45.194;9.142;2023-06-10T10:24:01;100300.78;;;24.51;52.63
79131;BME280;70394;45.194;9.142;2023-06-10T10:26:31;100291.00;;;24.50;52.21
79131;BME280;70394;45.194;9.142;2023-06-10T10:31:43;100290.47;;;24.64;52.49
79131;BME280;70394;45.194;9.142;2023-06-10T10:34:13;100290.69;;;24.71;52.07
79131;BME280;70394;45.194;9.142;2023-06-10T10:36:40;100292.63;;;24.79;52.71
79131;BME280;70394;45.194;9.142;2023-06-10T10:39:06;100284.75;;;24.86;52.66
79131;BME280;70394;45.194;9.142;2023-06-10T10:41:32;100282.25;;;24.84;52.78
79131;BME280;70394;45.194;9.142;2023-06-10T10:43:59;100282.63;;;24.89;52.96
79131;BME280;70394;45.194;9.142;2023-06-10T10:46:25;100287.22;;;24.97;53.35
79131;BME280;70394;45.194;9.142;2023-06-10T10:48:54;100270.38;;;24.77;50.39
79131;BME280;70394;45.194;9.142;2023-06-10T10:51:22;100276.84;;;24.84;51.87
79131;BME280;70394;45.194;9.142;2023-06-10T10:54:09;100268.81;;;24.92;52.10
79131;BME280;70394;45.194;9.142;2023-06-10T10:56:34;100272.19;;;24.94;52.47
79131;BME280;70394;45.194;9.142;2023-06-10T10:59:04;100263.50;;;25.01;51.88
79131;BME280;70394;45.194;9.142;2023-06-10T11:01:40;100258.41;;;24.97;51.85
79131;BME280;70394;45.194;9.142;2023-06-10T11:04:07;100267.44;;;25.06;52.70
79131;BME280;70394;45.194;9.142;2023-06-10T11:06:34;100273.72;;;25.15;52.37
79131;BME280;70394;45.194;9.142;2023-06-10T11:08:59;100274.09;;;25.20;52.78
79131;BME280;70394;45.194;9.142;2023-06-10T11:11:27;100269.38;;;25.22;52.33
79131;BME280;70394;45.194;9.142;2023-06-10T11:14:06;100266.81;;;24.94;50.70
79131;BME280;70394;45.194;9.142;2023-06-10T11:16:43;100259.16;;;25.08;52.46
79131;BME280;70394;45.194;9.142;2023-06-10T11:19:08;100263.16;;;25.22;51.54
79131;BME280;70394;45.194;9.142;2023-06-10T11:22:06;100252.75;;;25.09;50.70
79131;BME280;70394;45.194;9.142;2023-06-10T11:24:31;100263.16;;;25.22;51.99
79131;BME280;70394;45.194;9.142;2023-06-10T11:30:19;100252.53;;;25.29;51.30
79131;BME280;70394;45.194;9.142;2023-06-10T11:32:50;100240.03;;;25.19;50.59
79131;BME280;70394;45.194;9.142;2023-06-10T11:35:18;100245.84;;;25.33;51.28
79131;BME280;70394;45.194;9.142;2023-06-10T11:37:44;100243.66;;;25.36;51.47
79131;BME280;70394;45.194;9.142;2023-06-10T11:40:10;100238.97;;;25.38;51.80
79131;BME280;70394;45.194;9.142;2023-06-10T11:42:40;100237.63;;;25.43;51.81
79131;BME280;70394;45.194;9.142;2023-06-10T11:45:07;100239.16;;;25.45;52.00
79131;BME280;70394;45.194;9.142;2023-06-10T11:47:33;100235.47;;;25.46;52.03
79131;BME280;70394;45.194;9.142;2023-06-10T11:49:59;100224.97;;;25.43;51.85
79131;BME280;70394;45.194;9.142;2023-06-10T11:52:31;100235.00;;;25.51;51.05
79131;BME280;70394;45.194;9.142;2023-06-10T11:55:05;100236.00;;;25.50;51.69
79131;BME280;70394;45.194;9.142;2023-06-10T11:57:34;100223.66;;;25.47;52.08
79131;BME280;70394;45.194;9.142;2023-06-10T12:00:06;100231.13;;;25.53;51.59
79131;BME280;70394;45.194;9.142;2023-06-10T12:02:32;100226.06;;;25.50;51.53
79131;BME280;70394;45.194;9.142;2023-06-10T12:05:10;100229.44;;;25.52;51.48
79131;BME280;70394;45.194;9.142;2023-06-10T12:07:36;100220.66;;;25.50;51.58
79131;BME280;70394;45.194;9.142;2023-06-10T12:10:01;100227.06;;;25.49;51.93
79131;BME280;70394;45.194;9.142;2023-06-10T12:12:27;100229.28;;;25.54;52.23
79131;BME280;70394;45.194;9.142;2023-06-10T12:19:57;100214.69;;;25.47;51.91
79131;BME280;70394;45.194;9.142;2023-06-10T12:22:23;100214.59;;;25.57;52.04
79131;BME280;70394;45.194;9.142;2023-06-10T12:25:03;100212.78;;;25.65;52.28
79131;BME280;70394;45.194;9.142;2023-06-10T12:27:30;100218.84;;;25.59;50.93
79131;BME280;70394;45.194;9.142;2023-06-10T12:29:57;100212.91;;;25.56;51.74
79131;BME280;70394;45.194;9.142;2023-06-10T12:32:43;100212.78;;;25.65;51.96
79131;BME280;70394;45.194;9.142;2023-06-10T12:35:10;100215.88;;;25.71;52.47
79131;BME280;70394;45.194;9.142;2023-06-10T12:37:37;100204.75;;;25.74;52.18
79131;BME280;70394;45.194;9.142;2023-06-10T12:40:04;100202.47;;;25.61;50.89
79131;BME280;70394;45.194;9.142;2023-06-10T12:42:32;100197.78;;;25.63;51.84
79131;BME280;70394;45.194;9.142;2023-06-10T12:45:00;100199.81;;;25.69;52.16
79131;BME280;70394;45.194;9.142;2023-06-10T12:47:44;100208.66;;;25.79;52.80
79131;BME280;70394;45.194;9.142;2023-06-10T12:50:09;100198.81;;;25.78;52.57
79131;BME280;70394;45.194;9.142;2023-06-10T12:52:36;100210.53;;;25.87;52.39
79131;BME280;70394;45.194;9.142;2023-06-10T12:55:02;100202.56;;;25.86;52.52
79131;BME280;70394;45.194;9.142;2023-06-10T12:57:29;100184.34;;;25.79;52.06
79131;BME280;70394;45.194;9.142;2023-06-10T12:59:55;100199.22;;;25.92;54.13
79131;BME280;70394;45.194;9.142;2023-06-10T13:02:25;100206.53;;;26.08;52.21
79131;BME280;70394;45.194;9.142;2023-06-10T13:04:51;100201.13;;;26.08;51.92